Terminal Aerodrome Forecast
Issued by NWS

Home | Current Version | Previous Version | Text Only | Print | Product List | Glossary On
Versions: 1 2 3 4 5 6 7 8 9 10 11 12 13 14 15
000
FTAK31 PAJN 220726 AAA
TAFAJN
TAF AMD
PAJN 220726Z 2207/2306 07004KT P6SM BCFG SCT001 BKN100
      TEMPO 2207/2210 1SM BR BKN001
     FM221500 07004KT P6SM -SN SCT025 BKN070
     FM222100 10010KT 5SM -SN BKN025 OVC040
     FM230300 10014KT 3SM -SN SCT015 OVC025=

USA.gov is the U.S. government's official web portal to all federal, state and local government web resources and services.